sensor_id;sensor_type;location;lat;lon;timestamp;temperature;humidity
8408;DHT22;4241;48.452;9.216;2023-02-28T00:03:17;-1.10;99.90
8408;DHT22;4241;48.452;9.216;2023-02-28T00:05:44;-1.10;99.90
8408;DHT22;4241;48.452;9.216;2023-02-28T00:10:38;-1.10;99.90
8408;DHT22;4241;48.452;9.216;2023-02-28T00:13:06;-1.20;99.90
8408;DHT22;4241;48.452;9.216;2023-02-28T00:15:34;-1.20;99.90
8408;DHT22;4241;48.452;9.216;2023-02-28T00:20:29;-1.20;99.90
8408;DHT22;4241;48.452;9.216;2023-02-28T00:22:56;-1.40;99.90
8408;DHT22;4241;48.452;9.216;2023-02-28T00:25:24;-1.40;99.90
8408;DHT22;4241;48.452;9.216;2023-02-28T00:30:20;-1.40;99.90
8408;DHT22;4241;48.452;9.216;2023-02-28T00:32:48;-1.40;99.90
8408;DHT22;4241;48.452;9.216;2023-02-28T00:35:16;-1.50;99.90
8408;DHT22;4241;48.452;9.216;2023-02-28T00:37:43;-1.30;99.90
8408;DHT22;4241;48.452;9.216;2023-02-28T00:40:11;-1.40;99.90
8408;DHT22;4241;48.452;9.216;2023-02-28T00:42:38;-1.40;99.90
8408;DHT22;4241;48.452;9.216;2023-02-28T00:45:06;-1.40;99.90
8408;DHT22;4241;48.452;9.216;2023-02-28T00:50:03;-1.40;99.90
8408;DHT22;4241;48.452;9.216;2023-02-28T00:54:57;-1.60;99.90
8408;DHT22;4241;48.452;9.216;2023-02-28T01:07:15;-1.60;99.90
8408;DHT22;4241;48.452;9.216;2023-02-28T01:09:42;-1.70;99.90
8408;DHT22;4241;48.452;9.216;2023-02-28T01:12:09;-1.70;99.90
8408;DHT22;4241;48.452;9.216;2023-02-28T01:17:03;-1.70;99.90
8408;DHT22;4241;48.452;9.216;2023-02-28T01:19:30;-1.70;99.90
8408;DHT22;4241;48.452;9.216;2023-02-28T01:21:57;-1.90;99.90
8408;DHT22;4241;48.452;9.216;2023-02-28T01:24:27;-1.70;99.90
8408;DHT22;4241;48.452;9.216;2023-02-28T01:26:54;-1.80;99.90
8408;DHT22;4241;48.452;9.216;2023-02-28T01:31:48;-1.90;99.90
8408;DHT22;4241;48.452;9.216;2023-02-28T01:36:44;-1.90;99.90
8408;DHT22;4241;48.452;9.216;2023-02-28T01:41:40;-2.00;99.90
8408;DHT22;4241;48.452;9.216;2023-02-28T01:47:12;-2.20;99.90
8408;DHT22;4241;48.452;9.216;2023-02-28T01:52:06;0.00;99.90
8408;DHT22;4241;48.452;9.216;2023-02-28T01:54:34;-2.10;99.90
8408;DHT22;4241;48.452;9.216;2023-02-28T01:57:05;-2.00;99.90
8408;DHT22;4241;48.452;9.216;2023-02-28T01:59:35;-2.10;99.90
8408;DHT22;4241;48.452;9.216;2023-02-28T02:02:04;-1.80;99.90
8408;DHT22;4241;48.452;9.216;2023-02-28T02:04:37;-2.10;99.90
8408;DHT22;4241;48.452;9.216;2023-02-28T02:07:05;-2.20;99.90
8408;DHT22;4241;48.452;9.216;2023-02-28T02:09:32;-2.10;99.90
8408;DHT22;4241;48.452;9.216;2023-02-28T02:12:06;-2.20;99.90
8408;DHT22;4241;48.452;9.216;2023-02-28T02:14:48;-2.20;99.90
8408;DHT22;4241;48.452;9.216;2023-02-28T02:17:25;-2.10;99.90
8408;DHT22;4241;48.452;9.216;2023-02-28T02:20:37;-2.30;99.90
8408;DHT22;4241;48.452;9.216;2023-02-28T02:23:55;-2.30;99.90
8408;DHT22;4241;48.452;9.216;2023-02-28T02:26:47;-2.40;99.90
8408;DHT22;4241;48.452;9.216;2023-02-28T02:29:35;-2.00;99.90
8408;DHT22;4241;48.452;9.216;2023-02-28T02:32:35;-2.40;99.90
8408;DHT22;4241;48.452;9.216;2023-02-28T02:35:12;-2.30;99.90
8408;DHT22;4241;48.452;9.216;2023-02-28T02:37:45;-2.40;99.90
8408;DHT22;4241;48.452;9.216;2023-02-28T02:40:17;-2.30;99.90
8408;DHT22;4241;48.452;9.216;2023-02-28T02:42:49;-2.40;99.90
8408;DHT22;4241;48.452;9.216;2023-02-28T02:45:22;-2.30;99.90
8408;DHT22;4241;48.452;9.216;2023-02-28T02:47:51;-2.20;99.90
8408;DHT22;4241;48.452;9.216;2023-02-28T02:50:24;-2.30;99.90
8408;DHT22;4241;48.452;9.216;2023-02-28T02:52:55;-2.30;99.90
8408;DHT22;4241;48.452;9.216;2023-02-28T02:55:23;-2.30;99.90
8408;DHT22;4241;48.452;9.216;2023-02-28T02:57:53;-2.30;99.90
8408;DHT22;4241;48.452;9.216;2023-02-28T03:00:23;-2.40;99.90
8408;DHT22;4241;48.452;9.216;2023-02-28T03:02:52;-2.30;99.90
8408;DHT22;4241;48.452;9.216;2023-02-28T03:05:25;-2.30;99.90
8408;DHT22;4241;48.452;9.216;2023-02-28T03:10:35;-2.20;99.90
8408;DHT22;4241;48.452;9.216;2023-02-28T03:13:35;-2.10;99.90
8408;DHT22;4241;48.452;9.216;2023-02-28T03:16:18;-2.10;99.90
8408;DHT22;4241;48.452;9.216;2023-02-28T03:18:54;-2.10;99.90
8408;DHT22;4241;48.452;9.216;2023-02-28T03:21:34;-2.20;99.90
8408;DHT22;4241;48.452;9.216;2023-02-28T03:24:05;-2.20;99.90
8408;DHT22;4241;48.452;9.216;2023-02-28T03:26:36;-2.10;99.90
8408;DHT22;4241;48.452;9.216;2023-02-28T03:29:08;-2.20;99.90
8408;DHT22;4241;48.452;9.216;2023-02-28T03:31:46;-2.20;99.90
8408;DHT22;4241;48.452;9.216;2023-02-28T03:34:21;-2.10;99.90
8408;DHT22;4241;48.452;9.216;2023-02-28T03:36:53;-2.20;99.90
8408;DHT22;4241;48.452;9.216;2023-02-28T03:39:24;-2.10;99.90
8408;DHT22;4241;48.452;9.216;2023-02-28T03:41:54;-2.20;99.90
8408;DHT22;4241;48.452;9.216;2023-02-28T03:44:27;-2.10;99.90
8408;DHT22;4241;48.452;9.216;2023-02-28T03:46:58;-2.20;99.90
8408;DHT22;4241;48.452;9.216;2023-02-28T03:49:30;-2.10;99.90
8408;DHT22;4241;48.452;9.216;2023-02-28T03:52:02;-2.20;99.90
8408;DHT22;4241;48.452;9.216;2023-02-28T03:54:32;-2.20;99.90
8408;DHT22;4241;48.452;9.216;2023-02-28T03:57:05;-2.30;99.90
8408;DHT22;4241;48.452;9.216;2023-02-28T03:59:37;-2.10;99.90
8408;DHT22;4241;48.452;9.216;2023-02-28T04:04:33;-2.10;99.90
8408;DHT22;4241;48.452;9.216;2023-02-28T04:07:03;-2.10;99.90
8408;DHT22;4241;48.452;9.216;2023-02-28T04:11:59;-2.00;99.90
8408;DHT22;4241;48.452;9.216;2023-02-28T04:14:26;-2.10;99.90
8408;DHT22;4241;48.452;9.216;2023-02-28T04:19:20;-2.30;99.90
8408;DHT22;4241;48.452;9.216;2023-02-28T04:21:49;-2.00;99.90
8408;DHT22;4241;48.452;9.216;2023-02-28T04:24:18;-2.00;99.90
8408;DHT22;4241;48.452;9.216;2023-02-28T04:26:46;-2.00;99.90
8408;DHT22;4241;48.452;9.216;2023-02-28T04:29:18;-2.00;99.90
8408;DHT22;4241;48.452;9.216;2023-02-28T04:31:45;-2.00;99.90
8408;DHT22;4241;48.452;9.216;2023-02-28T04:34:12;-2.00;99.90
8408;DHT22;4241;48.452;9.216;2023-02-28T04:36:39;-1.90;99.90
8408;DHT22;4241;48.452;9.216;2023-02-28T04:39:06;-2.00;99.90
8408;DHT22;4241;48.452;9.216;2023-02-28T04:41:36;-1.90;99.90
8408;DHT22;4241;48.452;9.216;2023-02-28T04:44:03;-1.80;99.90
8408;DHT22;4241;48.452;9.216;2023-02-28T04:48:57;-1.90;99.90
8408;DHT22;4241;48.452;9.216;2023-02-28T04:51:24;-1.70;99.90
8408;DHT22;4241;48.452;9.216;2023-02-28T04:53:52;-1.90;99.90
8408;DHT22;4241;48.452;9.216;2023-02-28T04:56:18;-1.90;99.90
8408;DHT22;4241;48.452;9.216;2023-02-28T04:58:47;-1.90;99.90
8408;DHT22;4241;48.452;9.216;2023-02-28T05:01:18;-1.80;99.90
8408;DHT22;4241;48.452;9.216;2023-02-28T05:03:45;-2.00;99.90
8408;DHT22;4241;48.452;9.216;2023-02-28T05:08:40;-1.80;99.90
8408;DHT22;4241;48.452;9.216;2023-02-28T05:11:13;-1.90;99.90
8408;DHT22;4241;48.452;9.216;2023-02-28T05:13:40;-1.70;99.90
8408;DHT22;4241;48.452;9.216;2023-02-28T05:16:08;-1.60;99.90
8408;DHT22;4241;48.452;9.216;2023-02-28T05:21:03;-1.90;99.90
8408;DHT22;4241;48.452;9.216;2023-02-28T05:23:30;-1.70;99.90
8408;DHT22;4241;48.452;9.216;2023-02-28T05:25:57;-1.80;99.90
8408;DHT22;4241;48.452;9.216;2023-02-28T05:30:50;-1.90;99.90
8408;DHT22;4241;48.452;9.216;2023-02-28T05:33:18;-1.80;99.90
8408;DHT22;4241;48.452;9.216;2023-02-28T05:38:12;-1.70;99.90
8408;DHT22;4241;48.452;9.216;2023-02-28T05:43:10;-1.70;99.90
8408;DHT22;4241;48.452;9.216;2023-02-28T05:45:37;-1.80;99.90
8408;DHT22;4241;48.452;9.216;2023-02-28T05:48:05;-2.10;99.90
8408;DHT22;4241;48.452;9.216;2023-02-28T05:50:33;-1.80;99.90
8408;DHT22;4241;48.452;9.216;2023-02-28T05:57:54;-1.80;99.90
8408;DHT22;4241;48.452;9.216;2023-02-28T06:05:17;-1.80;99.90
8408;DHT22;4241;48.452;9.216;2023-02-28T06:07:45;-1.70;99.90
8408;DHT22;4241;48.452;9.216;2023-02-28T06:10:13;-1.70;99.90
8408;DHT22;4241;48.452;9.216;2023-02-28T06:12:40;-1.80;99.90
8408;DHT22;4241;48.452;9.216;2023-02-28T06:15:11;-1.70;99.90
8408;DHT22;4241;48.452;9.216;2023-02-28T06:17:38;-1.60;99.90
8408;DHT22;4241;48.452;9.216;2023-02-28T06:20:06;-1.60;99.90
8408;DHT22;4241;48.452;9.216;2023-02-28T06:22:34;-1.60;99.90
8408;DHT22;4241;48.452;9.216;2023-02-28T06:25:03;-1.50;99.90
8408;DHT22;4241;48.452;9.216;2023-02-28T06:27:31;-1.50;99.90
8408;DHT22;4241;48.452;9.216;2023-02-28T06:29:58;-1.60;99.90
8408;DHT22;4241;48.452;9.216;2023-02-28T06:37:19;-1.40;99.90
8408;DHT22;4241;48.452;9.216;2023-02-28T06:42:14;-1.30;99.90
8408;DHT22;4241;48.452;9.216;2023-02-28T06:44:41;-1.40;99.90
8408;DHT22;4241;48.452;9.216;2023-02-28T06:47:09;-1.10;99.90
8408;DHT22;4241;48.452;9.216;2023-02-28T06:49:36;-1.40;99.90
8408;DHT22;4241;48.452;9.216;2023-02-28T06:59:27;-1.30;99.90
8408;DHT22;4241;48.452;9.216;2023-02-28T07:01:54;-1.30;99.90
8408;DHT22;4241;48.452;9.216;2023-02-28T07:04:21;-1.40;99.90
8408;DHT22;4241;48.452;9.216;2023-02-28T07:06:48;-1.10;99.90
8408;DHT22;4241;48.452;9.216;2023-02-28T07:11:42;-1.40;99.90
8408;DHT22;4241;48.452;9.216;2023-02-28T07:16:37;-1.10;99.90
8408;DHT22;4241;48.452;9.216;2023-02-28T07:19:04;-1.10;99.90
8408;DHT22;4241;48.452;9.216;2023-02-28T07:23:58;-0.70;99.90
8408;DHT22;4241;48.452;9.216;2023-02-28T07:26:25;-1.00;99.90
8408;DHT22;4241;48.452;9.216;2023-02-28T07:33:48;-1.00;99.90
8408;DHT22;4241;48.452;9.216;2023-02-28T07:36:16;-0.90;99.90
8408;DHT22;4241;48.452;9.216;2023-02-28T07:38:44;-0.90;99.90
8408;DHT22;4241;48.452;9.216;2023-02-28T07:41:13;-0.80;99.90
8408;DHT22;4241;48.452;9.216;2023-02-28T07:46:09;-0.80;99.90
8408;DHT22;4241;48.452;9.216;2023-02-28T07:48:36;-0.50;99.90
8408;DHT22;4241;48.452;9.216;2023-02-28T07:51:04;-0.80;99.90
8408;DHT22;4241;48.452;9.216;2023-02-28T07:56:00;-0.70;99.90
8408;DHT22;4241;48.452;9.216;2023-02-28T07:58:28;-0.70;99.90
8408;DHT22;4241;48.452;9.216;2023-02-28T08:00:55;-0.80;99.90
8408;DHT22;4241;48.452;9.216;2023-02-28T08:03:23;-0.70;99.90
8408;DHT22;4241;48.452;9.216;2023-02-28T08:05:50;-0.70;99.90
8408;DHT22;4241;48.452;9.216;2023-02-28T08:08:20;-0.70;99.90
8408;DHT22;4241;48.452;9.216;2023-02-28T08:13:13;-0.90;99.90
8408;DHT22;4241;48.452;9.216;2023-02-28T08:15:41;-0.70;99.90
8408;DHT22;4241;48.452;9.216;2023-02-28T08:20:35;-0.70;99.90
8408;DHT22;4241;48.452;9.216;2023-02-28T08:23:02;-0.60;99.90
8408;DHT22;4241;48.452;9.216;2023-02-28T08:25:30;-0.40;99.90
8408;DHT22;4241;48.452;9.216;2023-02-28T08:32:51;-0.50;99.90
8408;DHT22;4241;48.452;9.216;2023-02-28T08:35:18;-0.50;99.90
8408;DHT22;4241;48.452;9.216;2023-02-28T08:42:44;-0.70;99.90
8408;DHT22;4241;48.452;9.216;2023-02-28T08:45:11;-0.50;99.90
8408;DHT22;4241;48.452;9.216;2023-02-28T08:50:06;-0.40;99.90
8408;DHT22;4241;48.452;9.216;2023-02-28T08:57:27;-0.30;99.90
8408;DHT22;4241;48.452;9.216;2023-02-28T08:59:56;-0.30;99.90
8408;DHT22;4241;48.452;9.216;2023-02-28T09:02:22;-0.30;99.90
8408;DHT22;4241;48.452;9.216;2023-02-28T09:04:49;0.10;99.90
8408;DHT22;4241;48.452;9.216;2023-02-28T09:07:16;-0.30;99.90
8408;DHT22;4241;48.452;9.216;2023-02-28T09:09:43;-0.20;99.90
8408;DHT22;4241;48.452;9.216;2023-02-28T09:12:20;-0.20;99.90
8408;DHT22;4241;48.452;9.216;2023-02-28T09:14:47;-0.20;99.90
8408;DHT22;4241;48.452;9.216;2023-02-28T09:17:15;-0.10;99.90
8408;DHT22;4241;48.452;9.216;2023-02-28T09:19:42;-0.10;99.90
8408;DHT22;4241;48.452;9.216;2023-02-28T09:22:09;-0.10;99.90
8408;DHT22;4241;48.452;9.216;2023-02-28T09:27:03;0.00;99.90
8408;DHT22;4241;48.452;9.216;2023-02-28T09:29:30;-0.70;99.90
8408;DHT22;4241;48.452;9.216;2023-02-28T09:31:57;0.10;99.90
8408;DHT22;4241;48.452;9.216;2023-02-28T09:34:26;0.20;99.90
8408;DHT22;4241;48.452;9.216;2023-02-28T09:36:53;0.10;99.90
8408;DHT22;4241;48.452;9.216;2023-02-28T09:39:21;0.10;99.90
8408;DHT22;4241;48.452;9.216;2023-02-28T09:41:51;0.20;99.90
8408;DHT22;4241;48.452;9.216;2023-02-28T09:44:24;0.20;99.90
8408;DHT22;4241;48.452;9.216;2023-02-28T09:46:57;0.10;99.90
8408;DHT22;4241;48.452;9.216;2023-02-28T09:49:31;0.30;99.90
8408;DHT22;4241;48.452;9.216;2023-02-28T09:52:02;-0.30;99.90
8408;DHT22;4241;48.452;9.216;2023-02-28T09:54:31;0.30;99.90
8408;DHT22;4241;48.452;9.216;2023-02-28T09:57:00;0.40;99.90
8408;DHT22;4241;48.452;9.216;2023-02-28T09:59:46;0.40;99.90
8408;DHT22;4241;48.452;9.216;2023-02-28T10:05:12;0.50;99.90
8408;DHT22;4241;48.452;9.216;2023-02-28T10:07:53;0.60;99.90
8408;DHT22;4241;48.452;9.216;2023-02-28T10:10:24;0.70;99.90
8408;DHT22;4241;48.452;9.216;2023-02-28T10:12:54;0.80;99.90
8408;DHT22;4241;48.452;9.216;2023-02-28T10:15:24;0.80;99.90
8408;DHT22;4241;48.452;9.216;2023-02-28T10:17:54;0.90;99.90
8408;DHT22;4241;48.452;9.216;2023-02-28T10:20:24;1.50;99.90
8408;DHT22;4241;48.452;9.216;2023-02-28T10:22:58;0.90;99.90
8408;DHT22;4241;48.452;9.216;2023-02-28T10:25:32;1.00;99.90
8408;DHT22;4241;48.452;9.216;2023-02-28T10:28:05;3.40;99.90
8408;DHT22;4241;48.452;9.216;2023-02-28T10:35:30;1.00;99.90
8408;DHT22;4241;48.452;9.216;2023-02-28T10:38:00;1.20;99.90
8408;DHT22;4241;48.452;9.216;2023-02-28T10:40:35;1.10;99.90
8408;DHT22;4241;48.452;9.216;2023-02-28T10:43:04;1.10;99.90
8408;DHT22;4241;48.452;9.216;2023-02-28T10:45:32;1.10;99.90
8408;DHT22;4241;48.452;9.216;2023-02-28T10:48:03;1.10;99.90
8408;DHT22;4241;48.452;9.216;2023-02-28T10:50:42;1.10;99.90
8408;DHT22;4241;48.452;9.216;2023-02-28T10:56:16;1.00;99.90
8408;DHT22;4241;48.452;9.216;2023-02-28T10:58:49;1.30;99.90
8408;DHT22;4241;48.452;9.216;2023-02-28T11:01:18;1.40;99.90
8408;DHT22;4241;48.452;9.216;2023-02-28T11:03:46;1.40;99.90
8408;DHT22;4241;48.452;9.216;2023-02-28T11:06:16;1.40;99.90
8408;DHT22;4241;48.452;9.216;2023-02-28T11:08:47;1.50;99.90
8408;DHT22;4241;48.452;9.216;2023-02-28T11:11:14;1.70;99.90
8408;DHT22;4241;48.452;9.216;2023-02-28T11:13:44;1.70;99.90
8408;DHT22;4241;48.452;9.216;2023-02-28T11:16:13;1.50;99.90
8408;DHT22;4241;48.452;9.216;2023-02-28T11:18:44;1.80;99.90
8408;DHT22;4241;48.452;9.216;2023-02-28T11:21:20;2.10;99.90
8408;DHT22;4241;48.452;9.216;2023-02-28T11:23:49;2.60;99.90
8408;DHT22;4241;48.452;9.216;2023-02-28T11:26:35;2.20;99.90
8408;DHT22;4241;48.452;9.216;2023-02-28T11:29:10;2.40;99.90
8408;DHT22;4241;48.452;9.216;2023-02-28T11:31:37;2.30;99.90
8408;DHT22;4241;48.452;9.216;2023-02-28T11:34:24;2.50;99.90
8408;DHT22;4241;48.452;9.216;2023-02-28T11:36:54;2.70;99.90
8408;DHT22;4241;48.452;9.216;2023-02-28T11:39:23;2.90;99.90
8408;DHT22;4241;48.452;9.216;2023-02-28T11:42:09;3.30;99.90
8408;DHT22;4241;48.452;9.216;2023-02-28T11:44:56;3.70;99.90
8408;DHT22;4241;48.452;9.216;2023-02-28T11:47:33;3.90;99.90
8408;DHT22;4241;48.452;9.216;2023-02-28T11:50:31;4.10;99.90
8408;DHT22;4241;48.452;9.216;2023-02-28T11:53:12;4.10;99.90
8408;DHT22;4241;48.452;9.216;2023-02-28T11:55:43;4.50;99.90
8408;DHT22;4241;48.452;9.216;2023-02-28T11:58:27;4.80;99.90
8408;DHT22;4241;48.452;9.216;2023-02-28T12:01:07;5.20;99.90
8408;DHT22;4241;48.452;9.216;2023-02-28T12:03:43;5.50;99.90
8408;DHT22;4241;48.452;9.216;2023-02-28T12:06:18;5.50;99.90
8408;DHT22;4241;48.452;9.216;2023-02-28T12:09:09;5.70;99.10
8408;DHT22;4241;48.452;9.216;2023-02-28T12:11:46;5.80;99.40
8408;DHT22;4241;48.452;9.216;2023-02-28T12:14:31;5.70;93.80
8408;DHT22;4241;48.452;9.216;2023-02-28T12:17:06;5.60;92.60
8408;DHT22;4241;48.452;9.216;2023-02-28T12:19:45;5.70;94.60
8408;DHT22;4241;48.452;9.216;2023-02-28T12:22:32;5.70;99.70
8408;DHT22;4241;48.452;9.216;2023-02-28T12:28:03;5.50;93.80
8408;DHT22;4241;48.452;9.216;2023-02-28T12:30:32;5.50;92.30
8408;DHT22;4241;48.452;9.216;2023-02-28T12:33:04;5.30;96.60
8408;DHT22;4241;48.452;9.216;2023-02-28T12:35:35;5.30;91.90
8408;DHT22;4241;48.452;9.216;2023-02-28T12:38:06;5.30;96.60
8408;DHT22;4241;48.452;9.216;2023-02-28T12:40:43;5.40;94.50
8408;DHT22;4241;48.452;9.216;2023-02-28T12:43:15;5.40;97.60
8408;DHT22;4241;48.452;9.216;2023-02-28T12:45:46;4.80;90.70
8408;DHT22;4241;48.452;9.216;2023-02-28T12:48:19;4.40;92.10
8408;DHT22;4241;48.452;9.216;2023-02-28T12:50:48;4.50;93.20
8408;DHT22;4241;48.452;9.216;2023-02-28T12:53:20;4.60;93.40
8408;DHT22;4241;48.452;9.216;2023-02-28T12:55:56;4.50;93.40
8408;DHT22;4241;48.452;9.216;2023-02-28T12:58:31;4.40;97.80
8408;DHT22;4241;48.452;9.216;2023-02-28T13:01:15;4.40;95.20
8408;DHT22;4241;48.452;9.216;2023-02-28T13:03:52;4.00;94.20
8408;DHT22;4241;48.452;9.216;2023-02-28T13:06:45;4.50;96.30
8408;DHT22;4241;48.452;9.216;2023-02-28T13:09:16;4.30;94.80
8408;DHT22;4241;48.452;9.216;2023-02-28T13:11:45;4.50;95.40
8408;DHT22;4241;48.452;9.216;2023-02-28T13:14:24;4.50;94.30
8408;DHT22;4241;48.452;9.216;2023-02-28T13:17:01;4.50;93.40
8408;DHT22;4241;48.452;9.216;2023-02-28T13:19:30;4.50;94.40
8408;DHT22;4241;48.452;9.216;2023-02-28T13:21:58;4.60;94.50
8408;DHT22;4241;48.452;9.216;2023-02-28T13:24:44;4.60;95.30
8408;DHT22;4241;48.452;9.216;2023-02-28T13:27:33;4.60;94.90
8408;DHT22;4241;48.452;9.216;2023-02-28T13:33:27;4.60;97.80
8408;DHT22;4241;48.452;9.216;2023-02-28T13:36:10;4.50;98.10
8408;DHT22;4241;48.452;9.216;2023-02-28T13:38:48;4.40;93.50
8408;DHT22;4241;48.452;9.216;2023-02-28T13:41:46;4.30;94.10
8408;DHT22;4241;48.452;9.216;2023-02-28T13:44:15;4.30;97.30
8408;DHT22;4241;48.452;9.216;2023-02-28T13:50:22;4.20;93.90
8408;DHT22;4241;48.452;9.216;2023-02-28T13:52:57;4.10;93.40
8408;DHT22;4241;48.452;9.216;2023-02-28T13:55:29;4.10;95.80
8408;DHT22;4241;48.452;9.216;2023-02-28T13:58:07;4.10;95.20
8408;DHT22;4241;48.452;9.216;2023-02-28T14:00:52;4.20;98.30
8408;DHT22;4241;48.452;9.216;2023-02-28T14:03:36;4.10;99.90
8408;DHT22;4241;48.452;9.216;2023-02-28T14:06:22;4.20;94.80
8408;DHT22;4241;48.452;9.216;2023-02-28T14:08:57;4.10;98.80
8408;DHT22;4241;48.452;9.216;2023-02-28T14:11:28;4.20;99.90
8408;DHT22;4241;48.452;9.216;2023-02-28T14:16:23;4.40;94.70
8408;DHT22;4241;48.452;9.216;2023-02-28T14:18:56;4.40;99.90
8408;DHT22;4241;48.452;9.216;2023-02-28T14:21:27;6.80;95.70
8408;DHT22;4241;48.452;9.216;2023-02-28T14:27:15;4.30;94.80
8408;DHT22;4241;48.452;9.216;2023-02-28T14:30:03;4.30;99.90
8408;DHT22;4241;48.452;9.216;2023-02-28T14:32:35;4.40;96.40
8408;DHT22;4241;48.452;9.216;2023-02-28T14:35:16;4.40;95.70
8408;DHT22;4241;48.452;9.216;2023-02-28T14:37:47;4.50;99.10
8408;DHT22;4241;48.452;9.216;2023-02-28T14:40:16;4.50;97.60
8408;DHT22;4241;48.452;9.216;2023-02-28T14:42:48;4.70;99.90
8408;DHT22;4241;48.452;9.216;2023-02-28T14:45:21;4.40;94.40
8408;DHT22;4241;48.452;9.216;2023-02-28T14:47:50;4.40;99.10
8408;DHT22;4241;48.452;9.216;2023-02-28T14:50:19;4.40;96.40
8408;DHT22;4241;48.452;9.216;2023-02-28T14:52:50;4.40;94.30
8408;DHT22;4241;48.452;9.216;2023-02-28T14:55:19;4.30;99.40
8408;DHT22;4241;48.452;9.216;2023-02-28T14:57:54;4.40;94.80
8408;DHT22;4241;48.452;9.216;2023-02-28T15:00:23;4.50;94.30
8408;DHT22;4241;48.452;9.216;2023-02-28T15:02:51;4.40;99.90
8408;DHT22;4241;48.452;9.216;2023-02-28T15:05:24;4.30;99.40
8408;DHT22;4241;48.452;9.216;2023-02-28T15:08:11;4.40;94.70
8408;DHT22;4241;48.452;9.216;2023-02-28T15:10:39;4.50;97.80
8408;DHT22;4241;48.452;9.216;2023-02-28T15:13:09;4.40;98.60
8408;DHT22;4241;48.452;9.216;2023-02-28T15:15:43;4.30;94.20
8408;DHT22;4241;48.452;9.216;2023-02-28T15:18:16;4.40;99.20
8408;DHT22;4241;48.452;9.216;2023-02-28T15:20:53;4.40;94.90
8408;DHT22;4241;48.452;9.216;2023-02-28T15:23:21;4.50;95.60
8408;DHT22;4241;48.452;9.216;2023-02-28T15:25:49;4.40;94.20
8408;DHT22;4241;48.452;9.216;2023-02-28T15:28:19;4.60;96.40
8408;DHT22;4241;48.452;9.216;2023-02-28T15:30:52;4.40;94.20
8408;DHT22;4241;48.452;9.216;2023-02-28T15:33:21;4.40;96.80
8408;DHT22;4241;48.452;9.216;2023-02-28T15:35:48;4.40;95.40
8408;DHT22;4241;48.452;9.216;2023-02-28T15:38:18;4.30;99.80
8408;DHT22;4241;48.452;9.216;2023-02-28T15:40:51;4.40;94.70
8408;DHT22;4241;48.452;9.216;2023-02-28T15:43:26;4.40;94.20
8408;DHT22;4241;48.452;9.216;2023-02-28T15:45:57;4.40;93.50
8408;DHT22;4241;48.452;9.216;2023-02-28T15:48:27;4.40;98.00
8408;DHT22;4241;48.452;9.216;2023-02-28T15:50:57;4.50;99.90
8408;DHT22;4241;48.452;9.216;2023-02-28T15:53:28;4.50;95.20
8408;DHT22;4241;48.452;9.216;2023-02-28T15:56:01;4.50;94.20
8408;DHT22;4241;48.452;9.216;2023-02-28T16:01:16;4.30;94.50
8408;DHT22;4241;48.452;9.216;2023-02-28T16:03:46;4.30;94.60
8408;DHT22;4241;48.452;9.216;2023-02-28T16:06:38;4.20;98.30
8408;DHT22;4241;48.452;9.216;2023-02-28T16:09:10;4.60;95.50
8408;DHT22;4241;48.452;9.216;2023-02-28T16:11:42;4.30;99.90
8408;DHT22;4241;48.452;9.216;2023-02-28T16:14:15;4.40;99.90
8408;DHT22;4241;48.452;9.216;2023-02-28T16:16:43;4.20;95.60
8408;DHT22;4241;48.452;9.216;2023-02-28T16:21:37;4.40;99.90
8408;DHT22;4241;48.452;9.216;2023-02-28T16:29:01;4.20;94.40
8408;DHT22;4241;48.452;9.216;2023-02-28T16:31:29;4.20;99.90
8408;DHT22;4241;48.452;9.216;2023-02-28T16:33:56;4.30;99.90
8408;DHT22;4241;48.452;9.216;2023-02-28T16:36:24;4.10;99.90
8408;DHT22;4241;48.452;9.216;2023-02-28T16:38:51;4.00;94.90
8408;DHT22;4241;48.452;9.216;2023-02-28T16:41:20;3.90;99.90
8408;DHT22;4241;48.452;9.216;2023-02-28T16:43:50;3.70;95.80
8408;DHT22;4241;48.452;9.216;2023-02-28T16:46:19;3.80;94.80
8408;DHT22;4241;48.452;9.216;2023-02-28T16:48:47;3.70;95.10
8408;DHT22;4241;48.452;9.216;2023-02-28T16:51:17;3.60;96.50
8408;DHT22;4241;48.452;9.216;2023-02-28T16:53:45;3.50;97.20
8408;DHT22;4241;48.452;9.216;2023-02-28T16:56:16;3.50;95.40
8408;DHT22;4241;48.452;9.216;2023-02-28T16:58:43;3.40;99.80
8408;DHT22;4241;48.452;9.216;2023-02-28T17:03:39;3.10;99.90
8408;DHT22;4241;48.452;9.216;2023-02-28T17:06:15;3.20;97.00
8408;DHT22;4241;48.452;9.216;2023-02-28T17:08:42;3.20;99.20
8408;DHT22;4241;48.452;9.216;2023-02-28T17:11:09;3.10;99.90
8408;DHT22;4241;48.452;9.216;2023-02-28T17:16:03;2.90;99.90
8408;DHT22;4241;48.452;9.216;2023-02-28T17:21:00;2.80;99.90
8408;DHT22;4241;48.452;9.216;2023-02-28T17:23:27;2.60;99.90
8408;DHT22;4241;48.452;9.216;2023-02-28T17:25:54;2.50;99.90
8408;DHT22;4241;48.452;9.216;2023-02-28T17:28:21;2.60;99.90
8408;DHT22;4241;48.452;9.216;2023-02-28T17:30:48;2.60;99.90
8408;DHT22;4241;48.452;9.216;2023-02-28T17:33:15;2.50;99.90
8408;DHT22;4241;48.452;9.216;2023-02-28T17:38:16;2.40;99.90
8408;DHT22;4241;48.452;9.216;2023-02-28T17:48:05;2.10;99.90
8408;DHT22;4241;48.452;9.216;2023-02-28T17:50:32;2.10;99.90
8408;DHT22;4241;48.452;9.216;2023-02-28T17:52:59;2.00;99.90
8408;DHT22;4241;48.452;9.216;2023-02-28T17:55:27;2.00;99.90
8408;DHT22;4241;48.452;9.216;2023-02-28T17:57:54;1.90;99.90
8408;DHT22;4241;48.452;9.216;2023-02-28T18:00:21;1.90;99.90
8408;DHT22;4241;48.452;9.216;2023-02-28T18:07:44;1.80;99.90
8408;DHT22;4241;48.452;9.216;2023-02-28T18:10:14;1.80;99.90
8408;DHT22;4241;48.452;9.216;2023-02-28T18:12:46;1.70;99.90
8408;DHT22;4241;48.452;9.216;2023-02-28T18:15:13;1.60;99.90
8408;DHT22;4241;48.452;9.216;2023-02-28T18:17:41;1.60;99.90
8408;DHT22;4241;48.452;9.216;2023-02-28T18:20:09;1.50;99.90
8408;DHT22;4241;48.452;9.216;2023-02-28T18:25:05;1.60;99.90
8408;DHT22;4241;48.452;9.216;2023-02-28T18:27:33;1.40;99.90
8408;DHT22;4241;48.452;9.216;2023-02-28T18:30:02;1.50;99.90
8408;DHT22;4241;48.452;9.216;2023-02-28T18:34:56;1.30;99.90
8408;DHT22;4241;48.452;9.216;2023-02-28T18:42:18;1.40;99.90
8408;DHT22;4241;48.452;9.216;2023-02-28T18:47:14;1.40;99.90
8408;DHT22;4241;48.452;9.216;2023-02-28T18:49:41;1.20;99.90
8408;DHT22;4241;48.452;9.216;2023-02-28T18:52:07;1.10;99.90
8408;DHT22;4241;48.452;9.216;2023-02-28T18:57:01;1.00;99.90
8408;DHT22;4241;48.452;9.216;2023-02-28T19:01:55;0.90;99.90
8408;DHT22;4241;48.452;9.216;2023-02-28T19:04:24;0.90;99.90
8408;DHT22;4241;48.452;9.216;2023-02-28T19:06:51;1.00;99.90
8408;DHT22;4241;48.452;9.216;2023-02-28T19:16:39;0.70;99.90
8408;DHT22;4241;48.452;9.216;2023-02-28T19:19:06;1.10;99.90
8408;DHT22;4241;48.452;9.216;2023-02-28T19:21:34;0.70;99.90
8408;DHT22;4241;48.452;9.216;2023-02-28T19:24:02;0.70;99.90
8408;DHT22;4241;48.452;9.216;2023-02-28T19:28:56;0.70;99.90
8408;DHT22;4241;48.452;9.216;2023-02-28T19:31:24;0.70;99.90
8408;DHT22;4241;48.452;9.216;2023-02-28T19:33:52;0.70;99.90
8408;DHT22;4241;48.452;9.216;2023-02-28T19:36:20;0.60;99.90
8408;DHT22;4241;48.452;9.216;2023-02-28T19:38:48;0.60;99.90
8408;DHT22;4241;48.452;9.216;2023-02-28T19:41:16;0.50;99.90
8408;DHT22;4241;48.452;9.216;2023-02-28T19:43:43;0.40;99.90
8408;DHT22;4241;48.452;9.216;2023-02-28T19:46:11;0.50;99.90
8408;DHT22;4241;48.452;9.216;2023-02-28T19:51:08;0.40;99.90
8408;DHT22;4241;48.452;9.216;2023-02-28T19:53:37;0.50;99.90
8408;DHT22;4241;48.452;9.216;2023-02-28T19:56:06;0.50;99.90
8408;DHT22;4241;48.452;9.216;2023-02-28T19:58:34;0.50;99.90
8408;DHT22;4241;48.452;9.216;2023-02-28T20:01:05;0.50;99.90
8408;DHT22;4241;48.452;9.216;2023-02-28T20:06:00;0.40;99.90
8408;DHT22;4241;48.452;9.216;2023-02-28T20:08:28;0.30;99.90
8408;DHT22;4241;48.452;9.216;2023-02-28T20:13:23;0.30;99.90
8408;DHT22;4241;48.452;9.216;2023-02-28T20:15:50;0.10;99.90
8408;DHT22;4241;48.452;9.216;2023-02-28T20:20:44;0.20;99.90